Informes de METARS cercanos

 

LEAL - Alicante/El Alte, Spain
Distance from station: SSE 60km
Actualización: 23/01/2021 14:30
Despejado
Despejado
 Viento del SO
Viento: SO 15 km/h
Temperatura: 18°C
Rocío: 0°C
Humedad: 30%
Barómetro: 1014 hPa
Resumen: Despejado
Visibility: greater than 10 km
2021/01/23 13:30 LEAL 231330Z 23008KT 180V270 CAVOK 18/M00 Q1014 NOSIG
LEVC - Valencia (civ/Mi, Spain
Distance from station: NNE 84km
Actualización: 23/01/2021 14:30
Few Clouds
Few Clouds
 Viento del O
Viento: O 43 km/h, Racha: 76 km/h
Temperatura: 16°C
Rocío: 3°C
Humedad: 42%
Barómetro: 1012 hPa
Clouds: Few Clouds
Visibility: 10 km
Cloud details: Few Clouds 1219 m
2021/01/23 13:30 LEVC 231330Z 27023G41KT 9999 FEW040 16/03 Q1012 NOSIG
 
LEAB - Albacete (civ/Mi, Spain
Distance from station: O 95km
Actualización: 23/01/2021 14:30
Parcialmente nuboso
Parcialmente nuboso
 Viento del O
Viento: O 41 km/h
Temperatura: 9°C
Wind Chill: 4°C
Rocío: 3°C
Humedad: 66%
Barómetro: 1015 hPa
Clouds: Parcialmente nuboso
Visibility: 10 km
Cloud details: Parcialmente nuboso 853 m
2021/01/23 13:30 LEAB 231330Z 28022KT 9999 SCT028 09/03 Q1015 NOSIG
LERI - Alcantarilla(Sp-, Spain
Distance from station: SSO 100km
Actualización: 23/01/2021 14:30
Despejado
Despejado
 Viento del N
Viento: N 7 km/h
Temperatura: 18°C
Rocío: 1°C
Humedad: 32%
Barómetro: 1015 hPa
Resumen: Despejado
Visibility: greater than 10 km
2021/01/23 13:30 LERI 231330Z 36004KT 280V060 CAVOK 18/01 Q1015 NOSIG
 
LELC - San Javier(Mil/C, Spain
Distance from station: S 113km
Actualización: 23/01/2021 14:30
Despejado
Despejado
 Viento del SSE
Viento: SSE 11 km/h
Temperatura: 17°C
Rocío: 6°C
Humedad: 49%
Barómetro: 1015 hPa
Resumen: Despejado
Visibility: greater than 10 km
2021/01/23 13:30 LELC 231330Z 16006KT 110V200 CAVOK 17/06 Q1015 NOSIG
LEIB - Ibiza/Es Codola, Spain
Distance from station: E 186km
Actualización: 23/01/2021 14:30
Despejado
Despejado
 Viento del O
Viento: O 33 km/h
Temperatura: 15°C
Rocío: 4°C
Humedad: 48%
Barómetro: 1013 hPa
Resumen: Despejado
Visibility: greater than 10 km
2021/01/23 13:30 LEIB 231330Z 26018KT 230V290 CAVOK 15/04 Q1013 NOSIG
 
LEAM - Almeria Airport, Spain
Distance from station: SSO 256km
Actualización: 23/01/2021 14:30
Despejado
Despejado
 Viento del SO
Viento: SO 15 km/h
Temperatura: 17°C
Rocío: 8°C
Humedad: 56%
Barómetro: 1017 hPa
Resumen: Despejado
Visibility: greater than 10 km
2021/01/23 13:30 LEAM 231330Z 23008KT CAVOK 17/08 Q1017
LEMD - Madrid/Barajas, Spain
Distance from station: NO 305km
Actualización: 23/01/2021 14:30
Lluvia débil, Muy nuboso
Lluvia débil, Muy nuboso
 Viento del SO
Viento: SO 26 km/h
Temperatura: 8°C
Wind Chill: 4°C
Rocío: 5°C
Humedad: 82%
Barómetro: 1012 hPa
Resumen: Lluvia débil
Clouds: Muy nuboso
Visibility: 10 km
Cloud details: Parcialmente nuboso 579 m
Muy nuboso 762 m
2021/01/23 13:30 LEMD 231330Z 22014KT 9999 -RA SCT019 BKN025 08/05 Q1012 NOSIG
 
LEPA - Palma De Mallorc, Spain
Distance from station: ENE 313km
Actualización: 23/01/2021 14:30
Few Clouds
Few Clouds
 Viento del O
Viento: O 39 km/h, Racha: 57 km/h
Temperatura: 15°C
Rocío: 6°C
Humedad: 55%
Barómetro: 1011 hPa
Clouds: Few Clouds
Visibility: 10 km
Cloud details: Few Clouds 914 m
2021/01/23 13:30 LEPA 231330Z 27021G31KT 9999 FEW030 15/06 Q1011 NOSIG